Lackland Air Force Base (Kelly Field Annex) Airport
KSKF : rendu visible

Aérodrome :











RETROUVEZ-NOUS SUR...

 
LOGIN :

S'inscrire | Disclaimer

   EN    FR    IT 

 









Légende :    VFR   VFR Marginal   IFR   IFR Intensif   IFR Très Intensif
Visi : 
Plafond : 
>= 8 km
>= 3000ft
5 à 8 km
1000 à 3000 ft
1500m à 5 km
500 à 1000 ft
800 à 1500m
200 à 500 ft
< 800m
< 200 ft
Symboles :   Orages  Brouillard  Fortes neiges  Fortes précipitations  Vent > 20 kt






- Altitude de l'aérodrome : 691 ft


KSKF - Lackland Air Force Base (Kelly Field Annex)

DERNIER METAR :
  • 220356Z 14007KT 10SM BKN040 23/19 A2992 RMK AO2A SLP126 T02300191 $

METARs EXPIRÉS :
  • 220336Z AUTO 13010KT 10SM SCT042 23/19 A2992 RMK AO2 SLP126 $
  • 220256Z AUTO 13010KT 10SM BKN043 23/19 A2991 RMK AO2 SLP123 T02320189 52015 $
  • 220156Z 12008KT 10SM BKN043 24/18 A2990 RMK AO2A SLP120 T02380184 $

TAF TAF KSKF
Valide du 22 à 02h jusqu'au 23 à 08h UTC


220200Z 2202/2308 13009KT 9999 BKN030 BKN250 QNH2990INS
BECMG 2205/2206 14006KT 9999 BKN020 QNH2988INS
TEMPO 2206/2210 BKN015
BECMG 2209/2210 18005KT 9000 BR BKN009 QNH2989INS
BECMG 2213/2214 VRB05KT 4800 -SHRA BR VCTS BKN007 BKN040CB QNH2995INS
TEMPO 2213/2215 BKN005
BECMG 2216/2217 36010G15KT 9999 NSW BKN015 510112 QNH2994INS
BECMG 2218/2219 01010G15KT 9999 SCT040 SCT250 QNH2991INS TX24/2202Z TN15/2302Z



MET'MAP, la Météo Aéronautique d'un coup d'oeil ! - Copyright ORBIFLY Décembre 2007 - Disclaimer

ORBIFLY MET'MAP TEAM :

Programmation & Développement : Alexandra Zaïnal
Conception & Développement : Baudouin d'Aumeries
Co-Programmation & Développement : Marc-Olivier Méhu
Soutien technique & logistique : Manuel Goepfert

Contact : metmap@orbifly.com




SOURCES & CREDITS :

   NOAA       Earth
Advisory